createdAt,value
2023-01-04T06:03:49.747Z,14.80
2023-01-04T06:13:57.704Z,14.80
2023-01-04T06:19:03.401Z,14.80
2023-01-04T06:24:08.100Z,14.80
2023-01-04T06:29:11.836Z,14.80
2023-01-04T06:34:17.021Z,14.90
2023-01-04T06:39:20.792Z,14.90
2023-01-04T06:44:24.445Z,14.90
2023-01-04T06:49:29.508Z,14.90
2023-01-04T06:54:33.763Z,14.90
2023-01-04T06:59:37.386Z,14.90
2023-01-04T07:04:42.973Z,14.90
2023-01-04T07:09:49.403Z,14.90
2023-01-04T07:14:53.068Z,15.00
2023-01-04T07:19:58.173Z,15.00
2023-01-04T07:25:01.885Z,15.00
2023-01-04T07:30:06.547Z,15.00
2023-01-04T07:35:11.999Z,15.00
2023-01-04T07:40:16.072Z,15.00
2023-01-04T07:50:25.123Z,15.00
2023-01-04T08:00:32.809Z,14.90
2023-01-04T08:05:37.836Z,15.00
2023-01-04T08:10:41.504Z,15.00
2023-01-04T08:20:54.903Z,15.10
2023-01-04T08:26:06.635Z,15.10
2023-01-04T08:31:12.263Z,15.10
2023-01-04T08:36:26.706Z,15.10
2023-01-04T08:46:55.908Z,15.10
2023-01-04T08:52:01.137Z,15.10
2023-01-04T09:02:20.042Z,15.10
2023-01-04T09:07:25.122Z,15.10
2023-01-04T09:12:28.809Z,15.10
2023-01-04T09:22:37.932Z,15.10
2023-01-04T09:37:50.879Z,15.30
2023-01-04T09:43:20.448Z,15.30
2023-01-04T09:48:25.267Z,15.40
2023-01-04T09:53:35.961Z,15.40
2023-01-04T09:58:42.289Z,15.40
2023-01-04T10:03:52.960Z,15.40
2023-01-04T10:09:04.187Z,15.50
2023-01-04T10:14:32.181Z,15.50
2023-01-04T10:21:12.000Z,15.50
2023-01-04T10:25:25.102Z,15.50
2023-01-04T10:30:41.224Z,15.50
2023-01-04T10:35:46.825Z,15.60
2023-01-04T10:40:52.084Z,15.60
2023-01-04T10:46:01.111Z,15.60
2023-01-04T10:51:10.145Z,15.60
2023-01-04T10:56:26.336Z,15.60
2023-01-04T11:01:36.408Z,15.60
2023-01-04T11:06:45.987Z,15.60
2023-01-04T11:11:52.116Z,15.60
2023-01-04T11:17:06.320Z,15.60
2023-01-04T11:22:16.888Z,15.60
2023-01-04T11:27:29.663Z,15.60
2023-01-04T11:32:40.483Z,15.60
2023-01-04T11:37:44.283Z,15.70
2023-01-04T11:42:50.757Z,15.70
2023-01-04T11:47:56.117Z,15.70
2023-01-04T11:52:59.777Z,15.70
2023-01-04T11:58:11.321Z,15.70
2023-01-04T12:03:16.920Z,15.70
2023-01-04T12:08:30.541Z,15.80
2023-01-04T12:13:35.841Z,15.80
2023-01-04T12:18:41.875Z,15.90
2023-01-04T12:23:46.540Z,15.90
2023-01-04T12:28:53.969Z,15.90
2023-01-04T12:33:58.952Z,15.90
2023-01-04T12:39:39.020Z,15.90
2023-01-04T12:45:22.954Z,15.90
2023-01-04T12:50:29.468Z,15.90
2023-01-04T12:56:00.556Z,16.00
2023-01-04T13:01:27.201Z,16.00
2023-01-04T13:06:38.133Z,16.10
2023-01-04T13:12:04.804Z,16.10
2023-01-04T13:17:17.793Z,16.10
2023-01-04T13:22:29.505Z,16.10
2023-01-04T13:27:34.098Z,16.20
2023-01-04T13:33:15.024Z,16.10
2023-01-04T13:38:05.131Z,16.10
2023-01-04T13:43:35.077Z,16.10
2023-01-04T13:48:40.916Z,16.10
2023-01-04T13:53:53.291Z,16.10
2023-01-04T13:58:56.976Z,16.10
2023-01-04T14:04:02.665Z,16.00
2023-01-04T14:09:15.629Z,16.00
2023-01-04T14:14:28.016Z,16.10
2023-01-04T14:19:48.239Z,16.10
2023-01-04T14:25:10.666Z,15.80
2023-01-04T14:30:25.559Z,16.00
2023-01-04T14:35:29.719Z,16.10
2023-01-04T14:40:37.851Z,16.10
2023-01-04T14:45:41.466Z,16.10
2023-01-04T14:50:45.074Z,16.10
2023-01-04T14:55:50.457Z,16.10
2023-01-04T15:00:54.028Z,16.00
2023-01-04T15:05:58.078Z,16.10
2023-01-04T15:11:03.590Z,16.10
2023-01-04T15:16:07.775Z,16.10
2023-01-04T15:21:12.239Z,15.80
2023-01-04T15:26:17.349Z,16.00
2023-01-04T15:36:35.149Z,15.50
2023-01-04T15:41:57.835Z,15.90
2023-01-04T15:47:01.553Z,15.90
2023-01-04T15:52:06.456Z,15.90
2023-01-04T15:57:11.431Z,15.90
2023-01-04T16:02:15.566Z,15.90
2023-01-04T16:07:19.643Z,15.90
2023-01-04T16:12:42.775Z,15.90
2023-01-04T16:17:47.212Z,15.80
2023-01-04T16:22:50.631Z,15.80
2023-01-04T16:27:55.594Z,15.80
2023-01-04T16:32:59.239Z,15.70
2023-01-04T16:38:02.934Z,14.80
2023-01-04T16:43:07.948Z,15.70
2023-01-04T16:48:18.099Z,15.70
2023-01-04T16:53:22.167Z,15.70
2023-01-04T16:58:27.143Z,15.60
2023-01-04T17:03:32.110Z,15.50
2023-01-04T17:08:35.774Z,15.50
2023-01-04T17:13:41.359Z,15.40
2023-01-04T17:18:45.695Z,15.40
2023-01-04T17:23:51.658Z,15.40
2023-01-04T17:28:58.860Z,15.30
2023-01-04T17:34:03.438Z,15.30
2023-01-04T17:39:07.280Z,15.30
2023-01-04T17:44:12.478Z,15.30
2023-01-04T17:49:27.711Z,15.40
2023-01-04T17:54:34.859Z,15.40
2023-01-04T17:59:40.081Z,15.40
2023-01-04T18:04:43.964Z,15.40
2023-01-04T18:09:47.759Z,15.40
2023-01-04T18:14:52.915Z,15.40
2023-01-04T18:19:58.627Z,15.50
2023-01-04T18:25:04.238Z,15.50
2023-01-04T18:30:10.923Z,15.50
2023-01-04T18:35:14.597Z,15.40
2023-01-04T18:40:18.413Z,15.40
2023-01-04T18:45:23.471Z,15.40
2023-01-04T18:50:27.254Z,15.40
2023-01-04T18:55:30.878Z,15.40
2023-01-04T19:00:35.890Z,15.40
2023-01-04T19:05:41.720Z,14.90
2023-01-04T19:10:45.633Z,15.40
2023-01-04T19:15:50.618Z,15.50
2023-01-04T19:20:54.903Z,15.50
2023-01-04T19:25:58.492Z,15.50
2023-01-04T19:31:08.791Z,15.50
2023-01-04T19:36:14.965Z,15.40
2023-01-04T19:41:26.339Z,15.40
2023-01-04T19:46:37.853Z,15.40
2023-01-04T19:51:43.809Z,15.40
2023-01-04T19:56:47.715Z,15.30
2023-01-04T20:01:52.763Z,15.30
2023-01-04T20:06:56.465Z,15.30
2023-01-04T20:12:00.421Z,15.30
2023-01-04T20:17:05.456Z,15.30
2023-01-04T20:22:09.320Z,15.40
2023-01-04T20:27:13.063Z,15.30
2023-01-04T20:32:18.036Z,15.30
2023-01-04T20:37:21.613Z,15.30
2023-01-04T20:42:42.935Z,15.30
2023-01-04T20:47:47.874Z,15.30
2023-01-04T20:52:51.504Z,15.30
2023-01-04T20:57:55.146Z,15.30
2023-01-04T21:03:00.277Z,15.30
2023-01-04T21:08:04.046Z,15.30
2023-01-04T21:13:08.264Z,15.30
2023-01-04T21:18:13.311Z,15.20
2023-01-04T21:23:19.256Z,15.30
2023-01-04T21:28:23.477Z,15.20
2023-01-04T21:33:28.447Z,15.20
2023-01-04T21:38:32.046Z,15.20
2023-01-04T21:43:35.780Z,15.20
2023-01-04T21:48:40.806Z,15.20
2023-01-04T21:53:46.575Z,15.20
2023-01-04T21:58:50.562Z,15.20
2023-01-04T22:03:56.386Z,15.20
2023-01-04T22:09:00.103Z,15.20
2023-01-04T22:14:04.104Z,15.20
2023-01-04T22:19:12.414Z,15.20
2023-01-04T22:24:16.981Z,15.20
2023-01-04T22:29:21.548Z,15.20
2023-01-04T22:34:28.075Z,15.20
2023-01-04T22:39:31.707Z,15.10
2023-01-04T22:44:35.385Z,15.10
2023-01-04T22:49:40.412Z,15.10
2023-01-04T22:54:44.151Z,15.10
2023-01-04T22:59:47.920Z,15.10
2023-01-04T23:04:53.047Z,15.40
2023-01-04T23:09:56.788Z,15.00
2023-01-04T23:15:03.443Z,15.00
2023-01-04T23:20:10.663Z,15.00
2023-01-04T23:25:14.619Z,15.00
